createdAt,value
2018-09-15T00:00:13.514Z,19.25
2018-09-15T00:01:13.510Z,19.33
2018-09-15T00:02:13.511Z,19.29
2018-09-15T00:03:13.517Z,19.23
2018-09-15T00:04:13.523Z,19.33
2018-09-15T00:05:13.538Z,19.36
2018-09-15T00:06:13.522Z,19.31
2018-09-15T00:07:13.520Z,19.28
2018-09-15T00:08:13.524Z,19.35
2018-09-15T00:09:13.523Z,19.25
2018-09-15T00:10:13.540Z,19.38
2018-09-15T00:11:13.541Z,19.40
2018-09-15T00:12:13.536Z,19.50
2018-09-15T00:13:13.549Z,19.33
2018-09-15T00:14:13.535Z,19.46
2018-09-15T00:15:13.537Z,19.39
2018-09-15T00:16:13.538Z,19.53
2018-09-15T00:17:13.538Z,19.42
2018-09-15T00:18:13.554Z,19.36
2018-09-15T00:19:13.548Z,19.42
2018-09-15T00:20:13.543Z,19.50
2018-09-15T00:21:13.548Z,19.42
2018-09-15T00:22:13.562Z,19.61
2018-09-15T00:23:13.569Z,19.50
2018-09-15T00:24:13.557Z,19.42
2018-09-15T00:25:13.554Z,19.36
2018-09-15T00:26:13.568Z,19.36
2018-09-15T00:27:13.566Z,19.51
2018-09-15T00:28:13.556Z,19.66
2018-09-15T00:29:13.561Z,19.72
2018-09-15T00:30:13.565Z,19.87
2018-09-15T00:31:13.566Z,19.68
2018-09-15T00:32:13.563Z,19.55
2018-09-15T00:33:13.568Z,19.66
2018-09-15T00:34:13.567Z,19.61
2018-09-15T00:35:13.570Z,19.54
2018-09-15T00:36:13.575Z,19.35
2018-09-15T00:37:13.580Z,19.53
2018-09-15T00:38:13.581Z,19.35
2018-09-15T00:39:13.579Z,19.39
2018-09-15T00:40:13.581Z,19.51
2018-09-15T00:41:13.584Z,19.38
2018-09-15T00:42:13.580Z,19.31
2018-09-15T00:43:13.596Z,19.36
2018-09-15T00:44:13.595Z,19.36
2018-09-15T00:45:13.585Z,19.35
2018-09-15T00:46:13.600Z,19.40
2018-09-15T00:47:13.595Z,19.47
2018-09-15T00:48:13.598Z,19.40
2018-09-15T00:49:13.603Z,19.39
2018-09-15T00:50:13.598Z,19.38
2018-09-15T00:51:13.595Z,19.40
2018-09-15T00:52:13.595Z,19.33
2018-09-15T00:53:13.601Z,19.47
2018-09-15T00:54:13.607Z,19.50
2018-09-15T00:55:13.606Z,19.51
2018-09-15T00:56:13.609Z,19.46
2018-09-15T00:57:13.613Z,19.54
2018-09-15T00:58:13.614Z,19.61
2018-09-15T00:59:13.615Z,19.60
2018-09-15T01:00:13.613Z,19.55
2018-09-15T01:01:13.619Z,19.51
2018-09-15T01:02:13.621Z,19.35
2018-09-15T01:03:13.649Z,19.53
2018-09-15T01:04:13.625Z,19.57
2018-09-15T01:05:13.640Z,19.63
2018-09-15T01:06:13.634Z,19.75
2018-09-15T01:07:13.635Z,19.76
2018-09-15T01:08:13.628Z,19.61
2018-09-15T01:09:13.639Z,19.53
2018-09-15T01:10:13.638Z,19.42
2018-09-15T01:11:13.631Z,19.61
2018-09-15T01:12:13.637Z,19.60
2018-09-15T01:13:13.658Z,19.54
2018-09-15T01:14:13.718Z,19.54
2018-09-15T01:15:13.668Z,19.36
2018-09-15T01:16:13.655Z,19.42
2018-09-15T01:17:13.648Z,19.31
2018-09-15T01:18:13.654Z,19.17
2018-09-15T01:19:13.650Z,19.08
2018-09-15T01:20:13.654Z,19.02
2018-09-15T01:21:13.645Z,19.05
2018-09-15T01:22:13.675Z,19.05
2018-09-15T01:23:13.665Z,19.18
2018-09-15T01:24:13.680Z,19.31
2018-09-15T01:25:13.655Z,19.28
2018-09-15T01:26:13.662Z,19.28
2018-09-15T01:27:13.666Z,19.18
2018-09-15T01:28:13.671Z,19.29
2018-09-15T01:29:13.668Z,19.25
2018-09-15T01:30:13.668Z,19.20
2018-09-15T01:31:13.668Z,19.14
2018-09-15T01:32:13.674Z,19.10
2018-09-15T01:33:13.709Z,19.02
2018-09-15T01:34:13.671Z,18.98
2018-09-15T01:35:13.680Z,19.15
2018-09-15T01:36:13.682Z,19.17
2018-09-15T01:37:13.675Z,19.33
2018-09-15T01:38:13.672Z,19.48
2018-09-15T01:39:13.681Z,19.53
2018-09-15T01:40:13.682Z,19.40
2018-09-15T01:41:13.683Z,19.32
2018-09-15T01:42:13.685Z,19.13
2018-09-15T01:43:13.690Z,19.35
2018-09-15T01:44:13.686Z,19.32
2018-09-15T01:45:13.687Z,19.42
2018-09-15T01:46:13.693Z,19.36
2018-09-15T01:47:13.691Z,19.36
2018-09-15T01:48:13.710Z,19.25
2018-09-15T01:49:13.699Z,19.39
2018-09-15T01:50:13.700Z,19.33
2018-09-15T01:51:13.704Z,19.32
2018-09-15T01:52:13.706Z,19.21
2018-09-15T01:53:13.712Z,19.06
2018-09-15T01:54:13.706Z,19.17
2018-09-15T01:55:13.709Z,19.31
2018-09-15T01:56:13.709Z,19.53
2018-09-15T01:57:13.736Z,19.21
2018-09-15T01:58:13.716Z,19.11
2018-09-15T01:59:13.716Z,19.06
2018-09-15T02:00:13.710Z,19.06
2018-09-15T02:01:13.728Z,19.05
2018-09-15T02:02:13.727Z,19.18
2018-09-15T02:03:13.721Z,19.15
2018-09-15T02:04:13.730Z,19.01
2018-09-15T02:05:13.731Z,18.92
2018-09-15T02:06:13.724Z,18.86
2018-09-15T02:07:13.738Z,18.74
2018-09-15T02:08:13.736Z,18.77
2018-09-15T02:09:13.750Z,18.91
2018-09-15T02:10:13.730Z,18.84
2018-09-15T02:11:13.761Z,18.91
2018-09-15T02:12:13.739Z,18.91
2018-09-15T02:13:13.731Z,18.97
2018-09-15T02:14:13.745Z,18.94
2018-09-15T02:15:13.741Z,18.94
2018-09-15T02:16:22.374Z,19.13
2018-09-15T02:18:07.173Z,18.94
2018-09-15T02:19:07.144Z,19.05
2018-09-15T02:20:07.142Z,18.92
2018-09-15T02:21:07.138Z,18.70
2018-09-15T02:22:07.144Z,18.80
2018-09-15T02:23:07.211Z,18.87
2018-09-15T02:24:07.145Z,18.80
2018-09-15T02:25:07.151Z,18.87
2018-09-15T02:26:07.151Z,18.97
2018-09-15T02:27:07.156Z,18.76
2018-09-15T02:28:07.153Z,18.80
2018-09-15T02:29:07.379Z,18.87
2018-09-15T02:30:07.150Z,18.82
2018-09-15T02:31:07.152Z,18.70
2018-09-15T02:32:07.158Z,18.97
2018-09-15T02:33:07.160Z,18.64
2018-09-15T02:34:07.155Z,18.80
2018-09-15T02:35:07.159Z,18.72
2018-09-15T02:36:07.160Z,18.61
2018-09-15T02:37:07.163Z,18.64
2018-09-15T02:38:07.165Z,18.61
2018-09-15T02:39:07.163Z,18.57
2018-09-15T02:40:07.167Z,18.54
2018-09-15T02:41:07.168Z,18.58
2018-09-15T02:42:07.169Z,18.76
2018-09-15T02:43:07.170Z,18.74
2018-09-15T02:44:07.172Z,18.54
2018-09-15T02:45:07.172Z,18.49
2018-09-15T02:46:07.171Z,18.59
2018-09-15T02:47:07.177Z,18.49
2018-09-15T02:48:07.172Z,18.43
2018-09-15T02:49:07.173Z,18.34
2018-09-15T02:50:07.184Z,18.52
2018-09-15T02:51:07.193Z,18.44
2018-09-15T02:52:07.226Z,18.44
2018-09-15T02:53:07.192Z,18.44
2018-09-15T02:54:07.216Z,18.21
2018-09-15T02:55:07.187Z,18.61
2018-09-15T03:14:30.074Z,18.37
2018-09-15T03:15:30.055Z,18.09
2018-09-15T03:16:30.046Z,18.03
2018-09-15T03:17:30.038Z,18.36
2018-09-15T03:18:30.037Z,18.44
2018-09-15T03:19:30.050Z,18.59
2018-09-15T03:20:30.045Z,18.59
2018-09-15T03:21:30.034Z,18.55
2018-09-15T03:22:30.038Z,18.58
2018-09-15T03:23:30.027Z,18.54
2018-09-15T03:24:30.025Z,18.64
2018-09-15T03:25:30.025Z,18.21
2018-09-15T03:26:30.032Z,18.03
2018-09-15T03:27:30.026Z,17.92
2018-09-15T03:28:30.025Z,18.00
2018-09-15T03:29:30.032Z,18.06
2018-09-15T03:30:30.027Z,18.27
2018-09-15T03:31:30.027Z,18.06
2018-09-15T03:32:30.027Z,18.22
2018-09-15T03:33:30.022Z,18.31
2018-09-15T03:34:30.027Z,18.37
2018-09-15T03:35:30.022Z,18.18
2018-09-15T03:36:30.020Z,18.19
2018-09-15T03:37:30.032Z,18.31
2018-09-15T03:38:30.031Z,18.25
2018-09-15T03:39:30.028Z,18.15
2018-09-15T03:40:30.075Z,18.10
2018-09-15T03:41:30.075Z,18.25
2018-09-15T03:42:30.030Z,17.78
2018-09-15T03:43:30.029Z,17.85
2018-09-15T03:44:30.029Z,17.85
2018-09-15T03:45:30.027Z,17.66
2018-09-15T03:46:30.027Z,17.69
2018-09-15T03:47:30.026Z,17.70
2018-09-15T03:48:30.029Z,17.84
2018-09-15T03:49:30.028Z,17.59
2018-09-15T03:50:30.031Z,17.74
2018-09-15T03:51:30.034Z,17.71
2018-09-15T03:52:30.039Z,17.81
2018-09-15T03:53:30.029Z,18.12
2018-09-15T03:54:30.047Z,18.28
2018-09-15T03:55:30.057Z,18.37
2018-09-15T03:56:30.068Z,18.10
2018-09-15T03:57:30.028Z,17.84
2018-09-15T03:58:30.034Z,17.74
2018-09-15T03:59:30.088Z,17.41
2018-09-15T04:00:30.037Z,17.32
2018-09-15T04:01:30.048Z,17.53
2018-09-15T04:02:30.033Z,17.69
2018-09-15T04:03:30.059Z,17.59
2018-09-15T04:04:30.091Z,17.89
2018-09-15T04:05:30.048Z,17.71
2018-09-15T04:06:30.047Z,17.71
2018-09-15T04:07:30.039Z,17.88
2018-09-15T04:08:30.035Z,18.06
2018-09-15T04:09:30.045Z,18.15
2018-09-15T04:10:30.052Z,17.99
2018-09-15T04:11:30.035Z,17.87
2018-09-15T04:12:30.040Z,17.74
2018-09-15T04:13:30.035Z,17.63
2018-09-15T04:14:30.045Z,17.69
2018-09-15T04:15:38.680Z,17.62
2018-09-15T04:17:33.514Z,17.73
2018-09-15T04:18:24.429Z,17.40
2018-09-15T04:19:24.430Z,17.54
2018-09-15T04:20:24.415Z,17.84
2018-09-15T04:21:24.421Z,18.07
2018-09-15T04:22:24.423Z,18.04
2018-09-15T04:23:24.430Z,18.09
2018-09-15T04:24:24.434Z,17.79
2018-09-15T04:25:24.436Z,17.78
2018-09-15T04:26:24.419Z,17.62
2018-09-15T04:27:24.420Z,17.54
2018-09-15T04:28:24.472Z,17.78
2018-09-15T04:29:24.423Z,17.79
2018-09-15T04:30:24.421Z,17.54
2018-09-15T04:31:24.429Z,17.48
2018-09-15T04:32:24.431Z,17.73
2018-09-15T04:33:24.428Z,18.10
2018-09-15T04:34:24.422Z,17.99
2018-09-15T04:35:24.464Z,18.04
2018-09-15T04:36:24.450Z,18.02
2018-09-15T04:37:24.448Z,17.47
2018-09-15T04:38:24.447Z,17.85
2018-09-15T04:39:24.442Z,18.09
2018-09-15T04:40:24.423Z,17.78
2018-09-15T04:41:24.420Z,17.62
2018-09-15T04:42:24.435Z,17.62
2018-09-15T04:43:24.450Z,17.70
2018-09-15T04:44:24.445Z,17.87
2018-09-15T04:45:24.419Z,17.74
2018-09-15T04:46:24.447Z,17.63
2018-09-15T04:47:24.426Z,17.54
2018-09-15T04:48:24.448Z,17.79
2018-09-15T04:49:24.437Z,17.51
2018-09-15T04:50:24.455Z,17.95
2018-09-15T04:51:24.451Z,18.24
2018-09-15T04:52:24.427Z,18.49
2018-09-15T04:53:24.424Z,18.58
2018-09-15T04:54:24.423Z,18.18
2018-09-15T04:55:24.431Z,18.17
2018-09-15T04:56:24.446Z,17.44
2018-09-15T04:57:24.429Z,17.00
2018-09-15T04:58:24.437Z,17.08
2018-09-15T04:59:24.491Z,16.93
2018-09-15T05:00:24.456Z,16.90
2018-09-15T05:01:24.425Z,17.00
2018-09-15T05:02:24.444Z,16.98
2018-09-15T05:03:24.430Z,17.10
2018-09-15T05:04:24.453Z,17.64
2018-09-15T05:05:24.444Z,17.74
2018-09-15T05:06:24.467Z,17.57
2018-09-15T05:07:24.445Z,17.85
2018-09-15T05:08:24.436Z,18.09
2018-09-15T05:09:24.430Z,17.74
2018-09-15T05:10:24.438Z,17.46
2018-09-15T05:11:24.430Z,17.36
2018-09-15T05:12:24.500Z,17.78
2018-09-15T05:13:24.458Z,17.57
2018-09-15T05:14:24.430Z,17.20
2018-09-15T05:15:24.431Z,17.54
2018-09-15T05:16:24.433Z,17.53
2018-09-15T05:17:24.423Z,17.41
2018-09-15T05:19:54.534Z,17.71
2018-09-15T05:20:45.449Z,17.78
2018-09-15T05:21:45.446Z,17.62
2018-09-15T05:22:45.451Z,17.46
2018-09-15T05:23:54.117Z,17.67
2018-09-15T05:25:47.920Z,17.85
2018-09-15T05:26:38.845Z,17.99
2018-09-15T05:29:08.952Z,17.03
2018-09-15T05:30:08.495Z,17.25
2018-09-15T05:31:53.340Z,16.58
2018-09-15T05:33:00.453Z,16.86
2018-09-15T05:34:46.673Z,16.93
